createdAt,value
2023-01-09T00:01:49.547Z,7.97
2023-01-09T00:04:20.110Z,4.53
2023-01-09T00:06:54.206Z,5.50
2023-01-09T00:09:24.010Z,5.60
2023-01-09T00:11:52.504Z,6.10
2023-01-09T00:14:20.080Z,6.90
2023-01-09T00:16:48.998Z,6.15
2023-01-09T00:19:16.764Z,5.90
2023-01-09T00:21:44.439Z,6.60
2023-01-09T00:24:12.115Z,6.47
2023-01-09T00:26:39.613Z,6.60
2023-01-09T00:29:10.971Z,6.40
2023-01-09T00:34:12.044Z,4.47
2023-01-09T00:36:40.093Z,6.57
2023-01-09T00:39:07.637Z,5.68
2023-01-09T00:41:40.739Z,6.95
2023-01-09T00:44:14.824Z,6.55
2023-01-09T00:46:47.805Z,6.47
2023-01-09T00:49:16.731Z,6.43
2023-01-09T00:54:15.297Z,5.20
2023-01-09T00:56:43.697Z,5.70
2023-01-09T00:59:11.359Z,7.35
2023-01-09T01:01:40.412Z,7.28
2023-01-09T01:04:29.753Z,6.55
2023-01-09T08:06:51.435Z,4.35
2023-01-09T08:09:19.203Z,4.22
2023-01-09T08:11:57.584Z,18.90
2023-01-09T08:15:49.460Z,4.80
2023-01-09T08:18:20.032Z,4.63
2023-01-09T08:20:50.903Z,5.07
2023-01-09T08:28:51.200Z,5.20
2023-01-09T08:31:21.946Z,4.22
2023-01-09T08:33:51.901Z,3.35
2023-01-09T08:36:20.943Z,3.90
2023-01-09T08:38:48.559Z,4.57
2023-01-09T08:41:34.737Z,4.00
2023-01-09T08:44:20.850Z,3.85
2023-01-09T08:47:06.932Z,4.40
2023-01-09T08:49:36.454Z,4.30
2023-01-09T08:52:06.282Z,3.35
2023-01-09T08:54:36.968Z,3.90
2023-01-09T08:57:05.083Z,5.45
2023-01-09T08:59:32.749Z,4.55
2023-01-09T09:02:00.875Z,3.78
2023-01-09T09:04:28.558Z,4.10
2023-01-09T09:06:56.162Z,4.68
2023-01-09T09:09:25.852Z,4.32
2023-01-09T09:11:55.167Z,3.78
2023-01-09T09:14:42.967Z,3.70
2023-01-09T09:17:10.597Z,3.90
2023-01-09T09:19:39.666Z,3.78
2023-01-09T09:22:07.138Z,4.15
2023-01-09T09:24:34.850Z,4.28
2023-01-09T09:27:03.262Z,3.95
2023-01-09T09:29:30.852Z,3.88
2023-01-09T09:32:00.744Z,4.20
2023-01-09T09:34:32.513Z,3.70
2023-01-09T09:37:04.841Z,4.43
2023-01-09T09:39:38.409Z,3.67
2023-01-09T09:42:46.781Z,3.63
2023-01-09T09:45:56.848Z,4.00
2023-01-09T09:48:39.371Z,3.25
2023-01-09T09:51:39.589Z,4.10
2023-01-09T09:54:15.180Z,4.57
2023-01-09T09:56:51.471Z,4.35
2023-01-09T09:59:23.774Z,4.55
2023-01-09T10:02:00.528Z,4.00
2023-01-09T10:04:33.585Z,3.58
2023-01-09T10:07:09.642Z,3.60
2023-01-09T10:09:49.304Z,4.00
2023-01-09T10:12:32.136Z,3.90
2023-01-09T10:15:03.356Z,3.03
2023-01-09T10:17:40.754Z,2.60
2023-01-09T10:20:24.737Z,3.35
2023-01-09T10:23:12.067Z,3.45
2023-01-09T10:25:53.714Z,3.15
2023-01-09T10:28:36.622Z,3.08
2023-01-09T10:31:41.734Z,2.95
2023-01-09T10:34:28.224Z,2.80
2023-01-09T10:37:18.931Z,2.75
2023-01-09T10:39:50.367Z,2.58
2023-01-09T10:42:23.948Z,2.80
2023-01-09T10:45:05.570Z,2.38
2023-01-09T10:47:37.487Z,2.70
2023-01-09T10:50:34.000Z,2.78
2023-01-09T10:53:20.059Z,2.63
2023-01-09T10:55:54.914Z,3.03
2023-01-09T10:58:23.300Z,2.75
2023-01-09T11:00:51.724Z,2.97
2023-01-09T11:03:22.969Z,2.88
2023-01-09T11:05:55.881Z,2.92
2023-01-09T11:08:31.739Z,3.15
2023-01-09T11:11:01.443Z,3.33
2023-01-09T11:13:32.624Z,2.90
2023-01-09T11:16:05.648Z,2.95
2023-01-09T11:18:38.088Z,2.88
2023-01-09T11:21:36.256Z,2.85
2023-01-09T11:24:19.285Z,2.72
2023-01-09T11:26:51.870Z,2.30
2023-01-09T11:29:26.855Z,2.08
2023-01-09T11:32:00.018Z,2.45
2023-01-09T11:34:30.732Z,2.08
2023-01-09T11:37:10.764Z,2.30
2023-01-09T11:39:49.129Z,2.08
2023-01-09T11:42:47.223Z,2.10
2023-01-09T11:45:26.248Z,2.85
2023-01-09T11:47:53.889Z,2.70
2023-01-09T11:50:25.057Z,1.95
2023-01-09T11:53:19.497Z,4.35
2023-01-09T11:55:56.217Z,2.20
2023-01-09T11:58:24.180Z,2.10
2023-01-09T12:02:35.658Z,1.90
2023-01-09T12:05:44.703Z,2.17
2023-01-09T12:08:27.123Z,2.42
2023-01-09T12:11:25.155Z,2.03
2023-01-09T12:14:16.187Z,2.20
2023-01-09T12:17:02.210Z,2.25
2023-01-09T12:20:07.229Z,2.30
2023-01-09T12:23:11.989Z,2.40
2023-01-09T12:25:56.211Z,2.08
2023-01-09T12:28:47.480Z,2.05
2023-01-09T12:31:39.716Z,2.28
2023-01-09T12:34:23.921Z,2.33
2023-01-09T12:36:56.429Z,2.97
2023-01-09T12:39:45.482Z,2.78
2023-01-09T12:42:36.097Z,2.58
2023-01-09T12:45:44.097Z,2.90
2023-01-09T12:48:33.525Z,2.57
2023-01-09T12:51:33.340Z,3.10
2023-01-09T12:54:05.996Z,3.90
2023-01-09T12:56:39.287Z,3.30
2023-01-09T12:59:11.241Z,2.42
2023-01-09T13:01:44.923Z,2.65
2023-01-09T13:04:19.011Z,3.60
2023-01-09T13:06:56.722Z,3.13
2023-01-09T13:09:35.161Z,3.35
2023-01-09T13:12:09.001Z,2.25
2023-01-09T13:14:47.723Z,2.10
2023-01-09T13:17:49.281Z,2.75
2023-01-09T13:20:26.035Z,2.55
2023-01-09T13:44:52.936Z,2.55
2023-01-09T13:47:28.628Z,2.28
2023-01-09T13:50:09.229Z,2.13
2023-01-09T13:52:42.293Z,2.38
2023-01-09T13:55:15.641Z,2.10
2023-01-09T13:58:08.134Z,1.88
2023-01-09T14:00:36.272Z,2.10
2023-01-09T14:03:26.182Z,2.38
2023-01-09T14:05:53.701Z,2.15
2023-01-09T14:08:33.072Z,2.60
2023-01-09T14:11:03.515Z,2.38
2023-01-09T14:13:46.862Z,2.05
2023-01-09T14:16:14.527Z,2.13
2023-01-09T14:18:53.011Z,1.92
2023-01-09T14:21:22.780Z,2.33
2023-01-09T14:24:03.434Z,2.15
2023-01-09T14:26:49.415Z,1.98
2023-01-09T14:29:36.464Z,2.30
2023-01-09T14:32:22.579Z,2.47
2023-01-09T14:34:57.593Z,2.13
2023-01-09T14:37:28.228Z,2.00
2023-01-09T14:39:57.110Z,1.90
2023-01-09T14:42:29.572Z,1.95
2023-01-09T14:45:04.350Z,2.47
2023-01-09T14:47:36.337Z,1.98
2023-01-09T14:50:19.491Z,1.88
2023-01-09T14:52:55.990Z,1.77
2023-01-09T14:55:36.395Z,1.80
2023-01-09T14:58:11.598Z,1.83
2023-01-09T15:00:52.565Z,1.80
2023-01-09T15:03:21.640Z,1.90
2023-01-09T15:05:52.976Z,1.98
2023-01-09T15:14:04.358Z,2.00
2023-01-09T15:16:39.393Z,2.45
2023-01-09T15:19:16.406Z,2.15
2023-01-09T15:22:35.370Z,1.77
2023-01-09T15:25:27.478Z,1.80
2023-01-09T15:28:20.046Z,1.80
2023-01-09T15:30:57.006Z,1.83
2023-01-09T15:33:25.188Z,1.90
2023-01-09T15:36:00.133Z,2.28
2023-01-09T15:38:29.814Z,2.13
2023-01-09T15:41:35.036Z,2.33
2023-01-09T15:44:05.573Z,1.88
2023-01-09T15:46:33.361Z,2.33
2023-01-09T15:49:03.499Z,2.35
2023-01-09T15:51:34.219Z,2.10
2023-01-09T15:54:03.851Z,3.58
2023-01-09T15:56:35.587Z,2.83
2023-01-09T15:59:27.375Z,2.75
2023-01-09T16:02:20.783Z,2.28
2023-01-09T16:04:55.034Z,2.05
2023-01-09T16:07:27.853Z,2.20
2023-01-09T16:15:33.338Z,1.90
2023-01-09T16:18:19.286Z,1.75
2023-01-09T16:20:47.516Z,2.05
2023-01-09T16:23:37.439Z,1.90
2023-01-09T16:26:10.678Z,1.90
2023-01-09T16:28:41.040Z,2.13
2023-01-09T16:31:21.330Z,2.20
2023-01-09T16:34:04.521Z,2.13
2023-01-09T16:36:37.896Z,1.92
2023-01-09T16:39:05.694Z,2.10
2023-01-09T16:41:53.184Z,1.60
2023-01-09T16:44:22.221Z,1.95
2023-01-09T16:46:49.863Z,1.67
2023-01-09T16:49:25.327Z,2.33
2023-01-09T16:51:55.480Z,2.20
2023-01-09T16:54:23.999Z,1.40
2023-01-09T16:56:54.978Z,1.90
2023-01-09T16:59:27.338Z,1.90
2023-01-09T17:01:56.132Z,1.63
2023-01-09T17:04:24.224Z,1.70
2023-01-09T17:06:52.194Z,1.85
2023-01-09T17:09:23.652Z,1.98
2023-01-09T17:11:55.471Z,1.90
2023-01-09T17:14:28.793Z,2.40
2023-01-09T17:16:57.230Z,2.30
2023-01-09T17:19:24.815Z,2.00
2023-01-09T17:21:54.662Z,2.17
2023-01-09T17:29:26.785Z,2.45
2023-01-09T17:31:55.121Z,2.78
2023-01-09T17:34:23.820Z,2.45
2023-01-09T17:36:51.469Z,3.50
2023-01-09T17:39:19.238Z,2.17
2023-01-09T17:41:49.235Z,1.80
2023-01-09T17:44:18.427Z,2.25
2023-01-09T17:46:46.309Z,2.42
2023-01-09T17:49:21.579Z,1.98
2023-01-09T17:51:50.470Z,1.55
2023-01-09T17:54:20.999Z,2.30
2023-01-09T17:56:51.295Z,1.80
2023-01-09T17:59:20.158Z,2.42
2023-01-09T18:01:48.730Z,1.90
2023-01-09T18:04:18.676Z,2.10
2023-01-09T18:06:48.361Z,2.25
2023-01-09T18:09:18.441Z,2.38
2023-01-09T18:11:48.624Z,2.42
2023-01-09T18:14:17.637Z,2.50
2023-01-09T18:16:45.411Z,2.80
2023-01-09T18:19:13.230Z,2.10
2023-01-09T18:21:42.940Z,2.80
2023-01-09T18:24:10.858Z,1.90
2023-01-09T18:26:40.070Z,2.45
2023-01-09T18:29:10.314Z,2.45
2023-01-09T18:31:37.904Z,2.33
2023-01-09T18:34:07.497Z,2.70
2023-01-09T18:36:37.514Z,2.58
2023-01-09T18:39:08.784Z,2.80
2023-01-09T18:41:36.866Z,2.30
2023-01-09T18:44:05.796Z,3.05
2023-01-09T18:46:33.605Z,2.65
2023-01-09T18:49:05.083Z,3.15
2023-01-09T18:51:35.811Z,2.25
2023-01-09T18:54:04.905Z,2.83
2023-01-09T18:59:02.684Z,3.17
2023-01-09T19:01:31.953Z,2.45
2023-01-09T19:04:00.301Z,2.58
2023-01-09T19:06:29.548Z,5.28
2023-01-09T19:08:58.907Z,5.50
2023-01-09T19:11:27.455Z,2.28
2023-01-09T19:17:29.599Z,2.22
2023-01-09T19:20:00.890Z,3.33
2023-01-09T19:22:28.843Z,2.42
2023-01-09T19:24:56.837Z,2.58
2023-01-09T19:27:24.482Z,3.10
2023-01-09T19:29:53.048Z,2.35
2023-01-09T20:20:02.434Z,1.88
2023-01-09T20:22:30.400Z,2.65
2023-01-09T20:25:00.148Z,1.87
2023-01-09T20:29:57.595Z,1.85
2023-01-09T20:32:25.197Z,1.92
2023-01-09T20:43:00.226Z,2.50
2023-01-09T20:45:29.127Z,2.30
2023-01-09T20:47:58.567Z,2.80
2023-01-09T20:50:34.328Z,2.00
2023-01-09T20:53:03.450Z,2.38
2023-01-09T20:55:31.035Z,2.15
2023-01-09T20:58:04.217Z,2.03
2023-01-09T21:00:34.500Z,2.03
2023-01-09T21:55:04.490Z,2.40
2023-01-09T21:57:32.156Z,2.17
2023-01-09T22:00:00.630Z,2.63
2023-01-09T22:02:28.277Z,2.17
2023-01-09T22:05:00.214Z,2.58
2023-01-09T22:07:28.006Z,2.70
2023-01-09T22:09:55.500Z,2.08
2023-01-09T22:12:23.029Z,2.50
2023-01-09T22:14:50.574Z,2.33
2023-01-09T22:17:18.115Z,2.33
2023-01-09T22:19:45.901Z,2.50
2023-01-09T22:22:13.401Z,2.33
2023-01-09T22:24:40.912Z,2.28
2023-01-09T22:27:09.505Z,1.65
2023-01-09T22:29:37.088Z,1.90
2023-01-09T22:32:04.821Z,2.13
2023-01-09T22:34:32.521Z,2.42
2023-01-09T22:37:00.160Z,2.25
2023-01-09T22:39:27.925Z,2.45
2023-01-09T22:41:55.918Z,1.75
2023-01-09T22:44:23.413Z,2.47
2023-01-09T22:46:50.956Z,1.73
2023-01-09T22:49:18.541Z,1.75
2023-01-09T22:51:46.200Z,2.20
2023-01-09T22:54:13.839Z,2.13
2023-01-09T22:56:41.480Z,2.13
2023-01-09T22:59:09.074Z,2.08
2023-01-09T23:01:36.617Z,1.67
2023-01-09T23:04:04.198Z,2.13
2023-01-09T23:06:32.241Z,2.55
2023-01-09T23:08:59.816Z,2.25
2023-01-09T23:11:48.138Z,1.88
2023-01-09T23:14:17.778Z,1.73
2023-01-09T23:16:45.431Z,1.88
2023-01-09T23:20:56.651Z,2.55
2023-01-09T23:23:28.180Z,1.90
2023-01-09T23:25:58.305Z,1.58
2023-01-09T23:28:27.716Z,2.92
2023-01-09T23:30:55.326Z,1.52
2023-01-09T23:33:22.873Z,1.75
2023-01-09T23:35:50.843Z,2.05
